Chicago, Illinois
Traffic Map
Current Weather Conditions
Chicago, Illinois
Scattered Clouds
Scattered Clouds
42°
Feels Like: 38°
Wind Chill: 38° Ceiling: Unl
Heat Index: 42° Visibility: 10mi
Dew Point: 31° Wind: 7mph
Humidity: 65% Direction: 30° (NNE)
Pressure: 30.05in Gusts: 0mph
Raw Report DataKMDW 260153Z 03006KT 10SM SCT250 06/M01 A3005 RMK AO2 SLP180 T00561006
Traffic Incident Summary
Active as of:
Severity:
Category:
InformationThere was an issue retrieving the traffic information for this location. Please try a different location or try again shortly.
Advertisements